createdAt,value
2023-05-05T00:00:30.136Z,6.50
2023-05-05T00:01:30.087Z,8.50
2023-05-05T00:02:30.135Z,7.00
2023-05-05T00:03:30.126Z,4.80
2023-05-05T00:04:30.049Z,6.40
2023-05-05T00:05:30.037Z,4.80
2023-05-05T00:06:30.019Z,7.10
2023-05-05T00:07:29.997Z,5.60
2023-05-05T00:08:30.061Z,5.80
2023-05-05T00:09:29.965Z,5.60
2023-05-05T00:10:29.945Z,5.60
2023-05-05T00:11:29.925Z,5.70
2023-05-05T00:12:29.953Z,5.50
2023-05-05T00:13:29.929Z,7.30
2023-05-05T00:14:30.044Z,9.00
2023-05-05T00:15:29.878Z,6.20
2023-05-05T00:16:29.910Z,6.80
2023-05-05T00:17:29.897Z,7.50
2023-05-05T00:18:29.856Z,7.70
2023-05-05T00:19:29.815Z,7.20
2023-05-05T00:20:29.817Z,6.30
2023-05-05T00:21:29.823Z,7.10
2023-05-05T00:22:29.792Z,6.90
2023-05-05T00:23:29.795Z,6.30
2023-05-05T00:24:29.792Z,6.60
2023-05-05T00:25:29.739Z,7.00
2023-05-05T00:26:29.760Z,5.90
2023-05-05T00:27:29.718Z,6.10
2023-05-05T00:28:29.716Z,7.10
2023-05-05T00:29:29.702Z,7.00
2023-05-05T00:30:29.684Z,5.70
2023-05-05T00:31:29.721Z,8.00
2023-05-05T00:32:29.700Z,8.90
2023-05-05T00:33:29.653Z,7.00
2023-05-05T00:34:29.636Z,5.70
2023-05-05T00:35:29.635Z,7.30
2023-05-05T00:36:29.599Z,7.30
2023-05-05T00:37:29.588Z,7.80
2023-05-05T00:38:29.630Z,7.70
2023-05-05T00:39:29.564Z,5.70
2023-05-05T00:40:29.567Z,7.10
2023-05-05T00:41:29.537Z,6.00
2023-05-05T00:42:29.522Z,7.20
2023-05-05T00:43:29.536Z,7.60
2023-05-05T00:44:29.513Z,6.80
2023-05-05T00:45:29.477Z,8.90
2023-05-05T00:46:29.554Z,5.60
2023-05-05T00:47:29.470Z,8.40
2023-05-05T00:48:29.453Z,6.30
2023-05-05T00:49:29.479Z,8.00
2023-05-05T00:50:29.420Z,6.10
2023-05-05T00:51:29.499Z,6.50
2023-05-05T00:52:29.583Z,8.40
2023-05-05T00:53:29.365Z,7.30
2023-05-05T00:54:29.362Z,8.30
2023-05-05T00:55:29.363Z,5.50
2023-05-05T00:56:29.336Z,6.90
2023-05-05T00:57:29.312Z,6.80
2023-05-05T00:58:29.291Z,10.40
2023-05-05T00:59:29.282Z,8.10
2023-05-05T01:00:29.298Z,7.10
2023-05-05T01:01:29.297Z,7.20
2023-05-05T01:02:29.284Z,9.80
2023-05-05T01:03:29.313Z,6.70
2023-05-05T01:04:29.230Z,9.60
2023-05-05T01:05:29.221Z,6.40
2023-05-05T01:06:29.217Z,8.40
2023-05-05T01:07:29.173Z,7.10
2023-05-05T01:08:29.215Z,10.70
2023-05-05T01:09:29.165Z,7.60
2023-05-05T01:10:29.153Z,8.20
2023-05-05T01:11:29.123Z,7.40
2023-05-05T01:12:29.148Z,6.40
2023-05-05T01:13:29.108Z,8.40
2023-05-05T01:14:29.089Z,8.00
2023-05-05T01:15:29.068Z,8.20
2023-05-05T01:16:29.127Z,7.10
2023-05-05T01:17:29.078Z,8.10
2023-05-05T01:18:29.034Z,9.50
2023-05-05T01:19:29.024Z,8.40
2023-05-05T01:20:28.994Z,8.30
2023-05-05T01:21:28.984Z,7.40
2023-05-05T01:22:28.998Z,7.10
2023-05-05T01:23:28.971Z,5.70
2023-05-05T01:24:28.952Z,9.50
2023-05-05T01:25:28.933Z,7.90
2023-05-05T01:26:28.928Z,11.90
2023-05-05T01:27:28.917Z,6.70
2023-05-05T01:28:28.901Z,9.00
2023-05-05T01:29:28.867Z,7.60
2023-05-05T01:30:28.865Z,7.80
2023-05-05T01:31:28.875Z,8.40
2023-05-05T01:32:28.888Z,8.00
2023-05-05T01:33:28.827Z,8.80
2023-05-05T01:34:28.807Z,8.60
2023-05-05T01:35:28.851Z,10.20
2023-05-05T01:36:28.804Z,7.40
2023-05-05T01:37:28.758Z,6.60
2023-05-05T01:38:28.791Z,11.60
2023-05-05T01:39:28.752Z,6.90
2023-05-05T01:40:28.727Z,7.20
2023-05-05T01:41:28.728Z,6.60
2023-05-05T01:42:28.700Z,8.10
2023-05-05T01:43:28.703Z,6.50
2023-05-05T01:44:28.678Z,11.00
2023-05-05T01:45:28.696Z,9.90
2023-05-05T01:46:28.651Z,8.50
2023-05-05T01:47:28.646Z,10.30
2023-05-05T01:48:28.638Z,9.50
2023-05-05T01:49:28.629Z,9.00
2023-05-05T01:50:28.603Z,6.20
2023-05-05T01:51:28.567Z,7.70
2023-05-05T01:52:28.562Z,9.30
2023-05-05T01:53:28.581Z,7.30
2023-05-05T01:54:28.532Z,9.20
2023-05-05T01:55:28.520Z,8.80
2023-05-05T01:56:28.501Z,8.80
2023-05-05T01:57:28.504Z,6.60
2023-05-05T01:58:28.497Z,6.50
2023-05-05T01:59:28.449Z,8.30
2023-05-05T02:00:28.477Z,7.40
2023-05-05T02:01:28.478Z,6.90
2023-05-05T02:02:28.519Z,7.90
2023-05-05T02:03:28.431Z,9.40
2023-05-05T02:04:28.477Z,7.40
2023-05-05T02:05:28.387Z,6.00
2023-05-05T02:06:28.375Z,6.80
2023-05-05T02:07:28.360Z,7.30
2023-05-05T02:08:28.357Z,9.80
2023-05-05T02:09:28.333Z,8.00
2023-05-05T02:10:28.341Z,7.10
2023-05-05T02:11:28.322Z,9.40
2023-05-05T02:12:28.300Z,8.80
2023-05-05T02:13:28.273Z,7.40
2023-05-05T02:14:28.267Z,7.50
2023-05-05T02:15:28.255Z,9.60
2023-05-05T02:16:28.237Z,7.40
2023-05-05T02:17:28.255Z,8.20
2023-05-05T02:18:28.207Z,8.10
2023-05-05T02:19:28.209Z,7.30
2023-05-05T02:20:28.251Z,9.10
2023-05-05T02:21:28.170Z,8.30
2023-05-05T02:22:28.216Z,8.50
2023-05-05T02:23:28.151Z,7.70
2023-05-05T02:24:28.125Z,9.00
2023-05-05T02:25:28.203Z,6.90
2023-05-05T02:26:28.109Z,8.00
2023-05-05T02:27:28.092Z,10.70
2023-05-05T02:28:28.089Z,9.70
2023-05-05T02:29:28.061Z,10.70
2023-05-05T02:30:28.058Z,7.70
2023-05-05T02:31:28.094Z,11.00
2023-05-05T02:32:28.051Z,7.80
2023-05-05T02:33:28.004Z,9.00
2023-05-05T02:34:28.004Z,8.40
2023-05-05T02:35:27.980Z,9.40
2023-05-05T02:36:27.984Z,8.90
2023-05-05T02:37:27.963Z,9.30
2023-05-05T02:38:27.920Z,10.10
2023-05-05T02:39:27.949Z,8.90
2023-05-05T02:40:27.925Z,7.20
2023-05-05T02:41:27.936Z,7.40
2023-05-05T02:42:27.882Z,9.30
2023-05-05T02:43:27.880Z,10.80
2023-05-05T02:44:27.853Z,8.30
2023-05-05T02:45:27.845Z,10.00
2023-05-05T02:46:27.894Z,11.40
2023-05-05T02:47:27.853Z,9.90
2023-05-05T02:48:27.796Z,11.20
2023-05-05T02:49:27.796Z,11.80
2023-05-05T02:50:27.765Z,11.20
2023-05-05T02:51:27.774Z,11.00
2023-05-05T02:52:27.746Z,8.10
2023-05-05T02:53:27.880Z,10.70
2023-05-05T02:54:27.720Z,8.50
2023-05-05T02:55:27.715Z,9.50
2023-05-05T02:56:27.714Z,10.70
2023-05-05T02:57:27.709Z,9.40
2023-05-05T02:58:27.657Z,7.10
2023-05-05T02:59:27.664Z,10.20
2023-05-05T03:00:27.659Z,11.70
2023-05-05T03:01:27.732Z,10.60
2023-05-05T03:02:27.672Z,13.70
2023-05-05T03:03:27.672Z,11.20
2023-05-05T03:04:27.585Z,9.20
2023-05-05T03:05:27.577Z,8.70
2023-05-05T03:06:27.580Z,8.60
2023-05-05T03:07:27.563Z,7.90
2023-05-05T03:08:27.520Z,11.50
2023-05-05T03:09:27.525Z,9.50
2023-05-05T03:10:27.497Z,10.90
2023-05-05T03:11:27.512Z,10.00
2023-05-05T03:12:27.473Z,10.00
2023-05-05T03:13:27.461Z,10.90
2023-05-05T03:14:27.441Z,10.80
2023-05-05T03:15:27.444Z,10.80
2023-05-05T03:16:27.451Z,10.40
2023-05-05T03:17:27.488Z,8.70
2023-05-05T03:18:27.391Z,12.90
2023-05-05T03:19:27.382Z,10.80
2023-05-05T03:20:27.378Z,8.20
2023-05-05T03:21:27.370Z,12.70
2023-05-05T03:22:27.346Z,12.00
2023-05-05T03:23:27.323Z,10.30
2023-05-05T03:24:27.305Z,10.80
2023-05-05T03:25:27.306Z,11.70
2023-05-05T03:26:27.295Z,13.60
2023-05-05T03:27:27.283Z,12.70
2023-05-05T03:28:27.262Z,8.80
2023-05-05T03:29:27.256Z,15.10
2023-05-05T03:30:27.220Z,12.00
2023-05-05T03:31:27.269Z,12.10
2023-05-05T03:32:27.230Z,12.20
2023-05-05T03:33:27.193Z,9.90
2023-05-05T03:34:27.186Z,11.20
2023-05-05T03:35:27.165Z,12.70
2023-05-05T03:36:29.006Z,12.40
2023-05-05T03:37:27.153Z,11.80
2023-05-05T03:38:27.111Z,12.00
2023-05-05T03:39:27.099Z,11.60
2023-05-05T03:40:36.372Z,13.80
2023-05-05T03:41:28.105Z,13.10
2023-05-05T03:42:27.068Z,12.90
2023-05-05T03:43:27.058Z,11.30
2023-05-05T03:44:27.049Z,11.00
2023-05-05T03:45:27.192Z,11.20
2023-05-05T03:46:27.032Z,12.40
2023-05-05T03:47:27.019Z,12.00
2023-05-05T03:48:26.989Z,13.70
2023-05-05T03:49:26.996Z,13.40
2023-05-05T03:50:26.950Z,16.00
2023-05-05T03:51:26.965Z,15.90
2023-05-05T03:52:26.924Z,16.00
2023-05-05T03:53:26.923Z,14.10
2023-05-05T03:54:26.915Z,14.30
2023-05-05T03:55:26.900Z,12.90
2023-05-05T03:56:26.898Z,14.00
2023-05-05T03:57:26.864Z,12.50
2023-05-05T03:58:26.848Z,15.90
2023-05-05T03:59:26.886Z,12.10
2023-05-05T04:00:26.827Z,13.40
2023-05-05T04:01:26.833Z,12.60
2023-05-05T04:02:26.977Z,13.40
2023-05-05T04:03:26.998Z,12.90
2023-05-05T04:04:26.857Z,18.20
2023-05-05T04:05:26.751Z,15.80
2023-05-05T04:06:26.752Z,14.60
2023-05-05T04:07:26.735Z,18.10
2023-05-05T04:08:26.710Z,13.70
2023-05-05T04:09:26.716Z,12.50
2023-05-05T04:10:26.692Z,18.60
2023-05-05T04:11:26.705Z,13.70
2023-05-05T04:12:26.676Z,13.80
2023-05-05T04:13:26.653Z,17.60
2023-05-05T04:14:26.638Z,12.50
2023-05-05T04:15:26.626Z,17.20
2023-05-05T04:16:26.686Z,10.90
2023-05-05T04:17:26.627Z,13.10
2023-05-05T04:18:26.585Z,17.60
2023-05-05T04:19:26.593Z,14.20
2023-05-05T04:20:26.573Z,14.50
2023-05-05T04:21:26.609Z,17.90
2023-05-05T04:22:26.521Z,16.30
2023-05-05T04:23:26.530Z,15.90
2023-05-05T04:24:26.517Z,15.00
2023-05-05T04:25:26.496Z,14.10
2023-05-05T04:26:26.494Z,16.50
2023-05-05T04:27:26.465Z,17.70
2023-05-05T04:28:26.469Z,15.80
2023-05-05T04:29:26.454Z,22.30
2023-05-05T04:30:26.420Z,64.60
2023-05-05T04:31:26.436Z,23.60
2023-05-05T04:32:26.418Z,20.70
2023-05-05T04:33:26.382Z,49.00
2023-05-05T04:34:26.362Z,25.10
2023-05-05T04:35:26.387Z,20.00
2023-05-05T04:36:26.366Z,19.20
2023-05-05T04:37:26.354Z,21.50
2023-05-05T04:38:26.336Z,25.10
2023-05-05T04:39:26.320Z,16.00
2023-05-05T04:40:26.326Z,19.40
2023-05-05T04:42:26.248Z,23.70
2023-05-05T04:43:26.245Z,28.90
2023-05-05T04:44:26.229Z,25.70
2023-05-05T04:45:26.251Z,23.00
2023-05-05T04:46:26.275Z,21.10
2023-05-05T04:47:26.207Z,23.50
2023-05-05T04:48:26.684Z,23.50
2023-05-05T04:49:26.697Z,24.70
2023-05-05T04:50:26.176Z,21.60
2023-05-05T04:51:26.154Z,23.90
2023-05-05T04:52:26.114Z,25.10
2023-05-05T04:53:26.666Z,20.10
2023-05-05T04:54:26.189Z,21.00
2023-05-05T04:55:26.548Z,28.70
2023-05-05T04:56:26.320Z,22.10
2023-05-05T04:57:26.348Z,24.00
2023-05-05T04:58:26.029Z,22.00
2023-05-05T04:59:26.023Z,22.00
2023-05-05T05:00:26.006Z,24.10
2023-05-05T05:01:26.026Z,26.80
2023-05-05T05:02:26.022Z,24.20
2023-05-05T05:03:26.067Z,23.90
2023-05-05T05:04:25.954Z,23.30
2023-05-05T05:05:25.947Z,30.20
2023-05-05T05:06:25.960Z,27.00
2023-05-05T05:07:25.961Z,23.40
2023-05-05T05:08:25.900Z,24.20
2023-05-05T05:09:25.899Z,24.60
2023-05-05T05:10:25.875Z,24.90
2023-05-05T05:11:25.882Z,26.20
2023-05-05T05:12:25.845Z,26.40
2023-05-05T05:13:25.936Z,25.50
2023-05-05T05:14:25.808Z,27.30
2023-05-05T05:15:25.802Z,29.40
2023-05-05T05:16:25.826Z,28.70
2023-05-05T05:17:25.832Z,33.60
2023-05-05T05:18:25.783Z,28.10
2023-05-05T05:19:25.755Z,29.60
2023-05-05T05:20:25.743Z,25.30
2023-05-05T05:21:25.744Z,29.20
2023-05-05T05:22:25.708Z,27.50
2023-05-05T05:23:25.694Z,26.00
2023-05-05T05:24:25.674Z,29.50
2023-05-05T05:25:25.667Z,26.70
2023-05-05T05:26:25.667Z,30.00
2023-05-05T05:27:25.637Z,27.80
2023-05-05T05:28:25.644Z,31.30
2023-05-05T05:29:25.625Z,27.40
2023-05-05T05:30:25.583Z,27.20
2023-05-05T05:31:25.642Z,25.50
2023-05-05T05:32:25.657Z,28.00
2023-05-05T05:33:25.590Z,24.80
2023-05-05T05:34:25.543Z,30.90
2023-05-05T05:35:25.532Z,24.90
2023-05-05T05:36:25.527Z,27.40
2023-05-05T05:37:25.531Z,28.90
2023-05-05T05:38:25.506Z,25.30
2023-05-05T05:39:25.476Z,30.10
2023-05-05T05:40:25.472Z,34.50
2023-05-05T05:41:25.499Z,25.50
2023-05-05T05:42:25.434Z,26.10
2023-05-05T05:43:25.415Z,29.70
2023-05-05T05:44:25.416Z,24.80
2023-05-05T05:45:25.404Z,29.00
2023-05-05T05:46:25.421Z,26.10
2023-05-05T05:47:25.475Z,27.80
2023-05-05T05:48:25.347Z,26.20
2023-05-05T05:49:25.342Z,29.30
2023-05-05T05:50:25.335Z,29.10
2023-05-05T05:51:25.329Z,31.90
2023-05-05T05:52:25.305Z,27.20
2023-05-05T05:53:25.284Z,31.20
2023-05-05T05:54:25.327Z,31.00
2023-05-05T05:55:25.277Z,34.10
2023-05-05T05:56:25.249Z,31.40
2023-05-05T05:57:25.228Z,32.00
2023-05-05T05:58:25.210Z,26.30
2023-05-05T05:59:25.200Z,30.30
2023-05-05T06:00:25.191Z,26.10
2023-05-05T06:01:25.218Z,26.50
2023-05-05T06:02:25.168Z,31.60
2023-05-05T06:03:25.320Z,28.60
2023-05-05T06:04:25.369Z,32.00
2023-05-05T06:05:25.139Z,33.40
2023-05-05T06:06:25.132Z,31.60
2023-05-05T06:07:25.089Z,29.70
2023-05-05T06:08:25.282Z,28.60
2023-05-05T06:09:25.069Z,28.90
2023-05-05T06:10:28.325Z,29.50
2023-05-05T06:11:25.040Z,32.30
2023-05-05T06:12:25.017Z,26.50
2023-05-05T06:13:25.009Z,25.90
2023-05-05T06:14:24.990Z,33.00
2023-05-05T06:15:25.000Z,27.10
2023-05-05T06:16:25.049Z,24.00
2023-05-05T06:17:24.965Z,26.10
2023-05-05T06:18:24.976Z,29.10
2023-05-05T06:19:24.931Z,32.30
2023-05-05T06:20:24.940Z,25.10
2023-05-05T06:21:24.900Z,25.50
2023-05-05T06:22:24.880Z,29.30
2023-05-05T06:23:24.869Z,28.60
2023-05-05T06:24:24.860Z,22.80
2023-05-05T06:25:24.864Z,22.70
2023-05-05T06:26:24.826Z,24.40
2023-05-05T06:27:24.834Z,21.10
2023-05-05T06:28:24.799Z,22.20
2023-05-05T06:29:24.792Z,21.70
2023-05-05T06:30:24.794Z,23.20
2023-05-05T06:31:24.791Z,21.90
2023-05-05T06:32:24.795Z,23.70
2023-05-05T06:33:24.750Z,21.20
2023-05-05T06:34:24.752Z,18.60
2023-05-05T06:35:24.739Z,22.20
2023-05-05T06:36:24.727Z,20.40
2023-05-05T06:37:24.672Z,19.50
2023-05-05T06:38:24.671Z,19.80
2023-05-05T06:39:24.660Z,16.70
2023-05-05T06:40:24.654Z,19.30
2023-05-05T06:41:24.654Z,19.40
2023-05-05T06:42:24.629Z,18.60
2023-05-05T06:43:24.596Z,17.40
2023-05-05T06:44:24.611Z,16.60
2023-05-05T06:45:24.584Z,16.80
2023-05-05T06:46:24.640Z,19.80
2023-05-05T06:47:24.560Z,15.30
2023-05-05T06:48:24.541Z,19.70
2023-05-05T06:49:24.525Z,17.30
2023-05-05T06:50:24.509Z,16.80
2023-05-05T06:51:24.514Z,14.70
2023-05-05T06:52:24.483Z,13.60
2023-05-05T06:53:24.461Z,13.30
2023-05-05T06:54:24.471Z,13.10
2023-05-05T06:55:24.439Z,13.70
2023-05-05T06:56:24.442Z,14.70
2023-05-05T06:57:24.412Z,13.40
2023-05-05T06:58:24.417Z,14.50
2023-05-05T06:59:24.391Z,13.30
2023-05-05T07:00:24.373Z,12.60
2023-05-05T07:01:24.485Z,11.40
2023-05-05T07:02:26.691Z,10.80
2023-05-05T07:03:24.372Z,14.30
2023-05-05T07:04:24.602Z,9.50
2023-05-05T07:05:24.337Z,10.90
2023-05-05T07:06:24.297Z,9.00
2023-05-05T07:07:24.286Z,8.30
2023-05-05T07:08:24.272Z,9.10
2023-05-05T07:09:24.257Z,8.90
2023-05-05T07:10:24.258Z,11.40
2023-05-05T07:11:24.237Z,10.40
2023-05-05T07:12:24.236Z,12.70
2023-05-05T07:13:24.216Z,10.30
2023-05-05T07:14:24.599Z,10.70
2023-05-05T07:15:29.243Z,11.00
2023-05-05T07:16:25.235Z,10.50
2023-05-05T07:17:24.175Z,10.10
2023-05-05T07:18:24.144Z,11.30
2023-05-05T07:19:24.136Z,11.00
2023-05-05T07:20:24.433Z,13.30
2023-05-05T07:21:24.113Z,12.70
2023-05-05T07:22:24.106Z,10.90
2023-05-05T07:23:24.083Z,10.80
2023-05-05T07:24:24.077Z,14.70
2023-05-05T07:25:24.061Z,13.10
2023-05-05T07:26:24.063Z,12.50
2023-05-05T07:27:24.043Z,14.70
2023-05-05T07:28:24.008Z,16.40
2023-05-05T07:29:23.985Z,14.20
2023-05-05T07:30:24.254Z,14.10
2023-05-05T07:31:23.964Z,17.70
2023-05-05T07:32:23.965Z,16.20
2023-05-05T07:33:23.946Z,21.20
2023-05-05T07:34:23.932Z,16.60
2023-05-05T07:35:23.911Z,16.70
2023-05-05T07:36:23.923Z,17.30
2023-05-05T07:37:24.054Z,18.80
2023-05-05T07:38:23.867Z,19.00
2023-05-05T07:39:23.854Z,16.80
2023-05-05T07:40:23.883Z,17.30
2023-05-05T07:41:23.830Z,16.00
2023-05-05T07:42:23.823Z,16.40
2023-05-05T07:43:23.787Z,22.10
2023-05-05T07:44:23.819Z,23.70
2023-05-05T07:45:23.792Z,20.40
2023-05-05T07:46:23.807Z,23.10
2023-05-05T07:47:23.748Z,21.40
2023-05-05T07:48:23.727Z,21.20
2023-05-05T07:49:23.727Z,19.90
2023-05-05T07:50:23.757Z,23.40
2023-05-05T07:51:23.719Z,17.80
2023-05-05T07:52:37.319Z,20.20
2023-05-05T07:53:24.659Z,19.00
2023-05-05T07:54:23.668Z,20.90
2023-05-05T07:55:23.625Z,24.70
2023-05-05T07:56:23.620Z,20.00
2023-05-05T07:57:23.604Z,27.70
2023-05-05T07:58:23.601Z,21.40
2023-05-05T07:59:23.598Z,24.70
2023-05-05T08:00:23.565Z,21.60
2023-05-05T08:01:23.545Z,22.80
2023-05-05T08:02:23.623Z,22.60
2023-05-05T08:03:23.653Z,23.30
2023-05-05T08:04:23.552Z,21.30
2023-05-05T08:05:23.520Z,19.20
2023-05-05T08:06:23.489Z,18.70
2023-05-05T08:07:23.466Z,19.00
2023-05-05T08:08:23.461Z,18.50
2023-05-05T08:09:23.439Z,19.10
2023-05-05T08:10:23.448Z,20.90
2023-05-05T08:11:23.410Z,18.30
2023-05-05T08:12:23.405Z,17.80
2023-05-05T08:13:23.383Z,17.80
2023-05-05T08:14:23.385Z,16.00
2023-05-05T08:15:23.370Z,15.60
2023-05-05T08:16:23.360Z,18.00
2023-05-05T08:17:23.386Z,14.00
2023-05-05T08:18:23.329Z,13.60
2023-05-05T08:19:28.737Z,14.70
2023-05-05T08:20:24.368Z,13.00
2023-05-05T08:21:23.297Z,14.00
2023-05-05T08:22:23.290Z,13.90
2023-05-05T08:23:23.271Z,14.40
2023-05-05T08:24:23.239Z,15.80
2023-05-05T08:25:23.219Z,14.10
2023-05-05T08:26:23.217Z,13.20
2023-05-05T08:27:23.208Z,11.40
2023-05-05T08:28:23.202Z,13.50
2023-05-05T08:29:23.171Z,13.10
2023-05-05T08:30:23.263Z,10.60
2023-05-05T08:31:23.217Z,11.10
2023-05-05T08:32:23.145Z,12.50
2023-05-05T08:33:23.122Z,8.20
2023-05-05T08:34:23.101Z,10.30
2023-05-05T08:35:23.113Z,13.00
2023-05-05T08:36:23.108Z,19.70
2023-05-05T08:37:23.074Z,15.50
2023-05-05T08:38:23.083Z,11.20
2023-05-05T08:39:23.072Z,10.60
2023-05-05T08:40:23.075Z,9.00
2023-05-05T08:41:23.022Z,9.00
2023-05-05T08:42:36.366Z,8.70
2023-05-05T08:43:24.043Z,8.70
2023-05-05T08:44:22.979Z,13.60
2023-05-05T08:45:22.982Z,12.10
2023-05-05T08:46:22.995Z,11.90
2023-05-05T08:47:22.935Z,11.50
2023-05-05T08:48:22.927Z,12.00
2023-05-05T08:49:22.901Z,11.60
2023-05-05T08:50:22.957Z,10.50
2023-05-05T08:51:22.919Z,8.90
2023-05-05T08:52:22.874Z,11.50
2023-05-05T08:53:22.851Z,12.80
2023-05-05T08:54:22.834Z,15.30
2023-05-05T08:55:22.852Z,12.50
2023-05-05T08:56:22.801Z,12.20
2023-05-05T08:57:22.784Z,11.10
2023-05-05T08:58:22.793Z,9.80
2023-05-05T08:59:22.793Z,10.50
2023-05-05T09:00:22.846Z,13.80
2023-05-05T09:01:22.811Z,10.70
2023-05-05T09:02:22.817Z,12.60
2023-05-05T09:03:22.742Z,8.90
2023-05-05T09:04:22.741Z,10.10
2023-05-05T09:05:22.690Z,9.50
2023-05-05T09:06:22.685Z,14.30
2023-05-05T09:07:22.652Z,11.50
2023-05-05T09:08:22.671Z,12.20
2023-05-05T09:09:22.638Z,10.30
2023-05-05T09:10:22.682Z,9.70
2023-05-05T09:11:22.625Z,9.80
2023-05-05T09:12:22.594Z,9.00
2023-05-05T09:13:22.593Z,10.20
2023-05-05T09:14:22.591Z,11.30
2023-05-05T09:15:22.539Z,10.40
2023-05-05T09:16:22.572Z,14.30
2023-05-05T09:17:22.528Z,10.90
2023-05-05T09:18:22.554Z,8.70
2023-05-05T09:19:22.478Z,12.00
2023-05-05T09:20:22.479Z,12.00
2023-05-05T09:21:22.463Z,8.20
2023-05-05T09:22:22.458Z,7.70
2023-05-05T09:23:22.468Z,7.80
2023-05-05T09:24:22.434Z,11.00
2023-05-05T09:25:22.440Z,8.80
2023-05-05T09:26:22.418Z,9.50
2023-05-05T09:27:22.406Z,7.20
2023-05-05T09:28:22.397Z,6.40
2023-05-05T09:29:22.367Z,7.00
2023-05-05T09:30:22.350Z,6.80
2023-05-05T09:31:22.404Z,9.50
2023-05-05T09:32:22.373Z,8.50
2023-05-05T09:33:22.304Z,6.60
2023-05-05T09:34:22.299Z,9.90
2023-05-05T09:35:22.294Z,8.00
2023-05-05T09:36:22.269Z,7.90
2023-05-05T09:37:22.266Z,10.50
2023-05-05T09:38:22.237Z,8.20
2023-05-05T09:39:22.235Z,5.40
2023-05-05T09:40:22.326Z,4.60
2023-05-05T09:41:22.193Z,6.60
2023-05-05T09:42:22.186Z,6.90
2023-05-05T09:43:22.177Z,5.10
2023-05-05T09:44:22.202Z,5.40
2023-05-05T09:45:22.158Z,7.90
2023-05-05T09:46:22.210Z,8.30
2023-05-05T09:47:29.443Z,18.60
2023-05-05T09:48:23.133Z,19.60
2023-05-05T09:49:22.101Z,10.90
2023-05-05T09:50:22.075Z,16.90
2023-05-05T09:51:22.158Z,13.70
2023-05-05T09:52:22.053Z,14.60
2023-05-05T09:53:22.027Z,11.40
2023-05-05T09:54:22.021Z,11.20
2023-05-05T09:55:22.002Z,9.70
2023-05-05T09:56:22.024Z,10.90
2023-05-05T09:57:21.969Z,11.30
2023-05-05T09:58:21.992Z,9.40
2023-05-05T09:59:21.959Z,9.90
2023-05-05T10:00:21.988Z,10.80
2023-05-05T10:01:21.980Z,12.60
2023-05-05T10:02:21.913Z,10.30
2023-05-05T10:03:21.895Z,11.00
2023-05-05T10:04:21.941Z,11.70
2023-05-05T10:05:21.957Z,10.50
2023-05-05T10:06:21.863Z,12.10
2023-05-05T10:07:21.851Z,12.00
2023-05-05T10:08:21.852Z,7.80
2023-05-05T10:09:21.812Z,10.30
2023-05-05T10:10:21.832Z,12.30
2023-05-05T10:11:21.788Z,9.90
2023-05-05T10:12:21.779Z,10.40
2023-05-05T10:13:21.753Z,9.80
2023-05-05T10:14:21.790Z,11.40
2023-05-05T10:15:21.744Z,9.20
2023-05-05T10:16:21.793Z,8.40
2023-05-05T10:17:21.704Z,12.00
2023-05-05T10:18:21.728Z,8.30
2023-05-05T10:19:21.685Z,8.70
2023-05-05T10:20:21.674Z,10.80
2023-05-05T10:21:21.669Z,8.80
2023-05-05T10:22:21.649Z,6.60
2023-05-05T10:23:21.644Z,9.50
2023-05-05T10:24:21.618Z,8.80
2023-05-05T10:25:21.598Z,8.50
2023-05-05T10:26:21.608Z,6.80
2023-05-05T10:27:21.569Z,9.50
2023-05-05T10:28:21.559Z,6.90
2023-05-05T10:29:21.548Z,8.30
2023-05-05T10:30:21.563Z,5.30
2023-05-05T10:31:26.543Z,5.20
2023-05-05T10:32:51.537Z,5.20
2023-05-05T10:34:21.522Z,7.90
2023-05-05T10:35:21.535Z,4.80
2023-05-05T10:36:21.472Z,7.30
2023-05-05T10:37:21.469Z,8.10
2023-05-05T10:38:21.441Z,7.10
2023-05-05T10:39:21.417Z,6.50
2023-05-05T10:40:21.408Z,5.40
2023-05-05T10:41:21.410Z,6.40
2023-05-05T10:42:21.389Z,5.80
2023-05-05T10:43:21.402Z,5.00
2023-05-05T10:44:21.363Z,7.80
2023-05-05T10:45:21.362Z,5.70
2023-05-05T10:46:21.513Z,9.30
2023-05-05T10:47:21.382Z,6.20
2023-05-05T10:48:21.312Z,5.90
2023-05-05T10:49:21.297Z,9.70
2023-05-05T10:50:21.263Z,5.50
2023-05-05T10:51:35.118Z,6.30
2023-05-05T10:52:22.252Z,6.80
2023-05-05T10:53:21.278Z,16.00
2023-05-05T10:54:21.345Z,24.90
2023-05-05T10:55:21.227Z,8.80
2023-05-05T10:56:21.204Z,8.60
2023-05-05T10:57:21.177Z,5.60
2023-05-05T10:58:21.174Z,7.30
2023-05-05T10:59:21.161Z,6.50
2023-05-05T11:00:21.138Z,5.20
2023-05-05T11:01:21.132Z,7.30
2023-05-05T11:02:21.124Z,8.00
2023-05-05T11:03:21.217Z,6.20
2023-05-05T11:04:21.159Z,9.70
2023-05-05T11:05:21.081Z,10.60
2023-05-05T11:06:21.055Z,8.80
2023-05-05T11:07:21.058Z,9.10
2023-05-05T11:08:21.046Z,7.90
2023-05-05T11:09:21.021Z,8.20
2023-05-05T11:10:21.292Z,6.50
2023-05-05T11:11:20.987Z,7.70
2023-05-05T11:12:20.996Z,8.90
2023-05-05T11:13:21.101Z,9.80
2023-05-05T11:14:20.940Z,9.10
2023-05-05T11:15:20.941Z,8.20
2023-05-05T11:16:20.924Z,9.90
2023-05-05T11:17:20.934Z,7.70
2023-05-05T11:18:20.888Z,14.20
2023-05-05T11:19:20.916Z,18.30
2023-05-05T11:20:20.857Z,13.40
2023-05-05T11:21:20.877Z,10.50
2023-05-05T11:22:20.866Z,10.90
2023-05-05T11:23:20.847Z,6.20
2023-05-05T11:24:20.816Z,5.90
2023-05-05T11:25:20.854Z,8.80
2023-05-05T11:26:20.793Z,5.80
2023-05-05T11:27:20.783Z,10.10
2023-05-05T11:28:20.751Z,7.60
2023-05-05T11:29:20.799Z,5.80
2023-05-05T11:30:20.729Z,7.60
2023-05-05T11:31:20.816Z,7.40
2023-05-05T11:32:20.701Z,6.20
2023-05-05T11:33:20.720Z,9.60
2023-05-05T11:34:20.673Z,3.90
2023-05-05T11:35:20.703Z,8.20
2023-05-05T11:36:20.661Z,4.30
2023-05-05T11:37:20.636Z,4.80
2023-05-05T11:38:20.640Z,6.00
2023-05-05T11:39:20.606Z,7.90
2023-05-05T11:40:20.598Z,5.60
2023-05-05T11:41:20.584Z,3.80
2023-05-05T11:42:20.578Z,5.50
2023-05-05T11:43:20.599Z,6.70
2023-05-05T11:44:20.544Z,7.50
2023-05-05T11:45:20.534Z,7.00
2023-05-05T11:46:20.562Z,4.70
2023-05-05T11:47:20.773Z,6.30
2023-05-05T11:48:20.504Z,5.70
2023-05-05T11:49:20.517Z,5.10
2023-05-05T11:50:20.460Z,4.40
2023-05-05T11:51:20.449Z,7.20
2023-05-05T11:52:20.444Z,5.00
2023-05-05T11:53:20.418Z,3.60
2023-05-05T11:54:20.408Z,3.60
2023-05-05T11:55:20.388Z,4.40
2023-05-05T11:56:20.417Z,7.00
2023-05-05T11:57:20.384Z,8.20
2023-05-05T11:58:20.356Z,4.10
2023-05-05T11:59:20.343Z,6.70
2023-05-05T12:00:20.336Z,5.00
2023-05-05T12:01:20.340Z,7.00
2023-05-05T12:02:20.342Z,7.00
2023-05-05T12:03:20.383Z,6.60
2023-05-05T12:04:20.300Z,5.40
2023-05-05T12:05:20.265Z,7.00
2023-05-05T12:06:20.250Z,6.50
2023-05-05T12:07:20.242Z,4.70
2023-05-05T12:08:20.212Z,6.10
2023-05-05T12:09:20.207Z,6.10
2023-05-05T12:10:20.266Z,8.50
2023-05-05T12:11:20.193Z,6.80
2023-05-05T12:12:20.170Z,9.00
2023-05-05T12:13:20.504Z,6.10
2023-05-05T12:14:20.146Z,7.30
2023-05-05T12:15:20.321Z,9.30
2023-05-05T12:16:20.165Z,5.50
2023-05-05T12:17:20.107Z,6.80
2023-05-05T12:18:20.089Z,11.10
2023-05-05T12:19:20.080Z,9.10
2023-05-05T12:20:20.067Z,6.50
2023-05-05T12:21:20.033Z,5.40
2023-05-05T12:22:20.034Z,6.00
2023-05-05T12:23:20.018Z,11.00
2023-05-05T12:24:20.033Z,5.30
2023-05-05T12:25:20.004Z,5.90
2023-05-05T12:26:19.966Z,8.50
2023-05-05T12:27:19.974Z,8.40
2023-05-05T12:28:19.944Z,8.70
2023-05-05T12:29:19.940Z,8.80
2023-05-05T12:30:19.952Z,6.20
2023-05-05T12:31:19.950Z,6.50
2023-05-05T12:32:19.928Z,8.80
2023-05-05T12:33:19.881Z,6.70
2023-05-05T12:34:19.846Z,5.20
2023-05-05T12:35:19.893Z,7.40
2023-05-05T12:36:19.836Z,4.40
2023-05-05T12:37:19.843Z,4.70
2023-05-05T12:38:19.807Z,4.40
2023-05-05T12:39:19.824Z,5.00
2023-05-05T12:40:19.779Z,4.10
2023-05-05T12:41:19.769Z,5.30
2023-05-05T12:42:19.756Z,4.30
2023-05-05T12:43:19.789Z,4.40
2023-05-05T12:44:19.725Z,4.60
2023-05-05T12:45:19.713Z,3.30
2023-05-05T12:46:19.732Z,4.60
2023-05-05T12:47:19.686Z,3.30
2023-05-05T12:48:19.730Z,4.30
2023-05-05T12:49:19.675Z,5.60
2023-05-05T12:50:19.647Z,3.60
2023-05-05T12:51:19.659Z,5.40
2023-05-05T12:52:19.651Z,5.10
2023-05-05T12:53:19.837Z,3.40
2023-05-05T12:54:19.605Z,4.90
2023-05-05T12:55:19.592Z,3.30
2023-05-05T12:56:19.569Z,7.30
2023-05-05T12:57:19.582Z,5.30
2023-05-05T12:58:19.539Z,7.20
2023-05-05T12:59:19.526Z,6.90
2023-05-05T13:00:19.508Z,6.00
2023-05-05T13:01:19.530Z,8.90
2023-05-05T13:02:19.524Z,5.30
2023-05-05T13:03:19.721Z,6.70
2023-05-05T13:04:19.458Z,7.00
2023-05-05T13:05:19.452Z,4.90
2023-05-05T13:06:19.462Z,11.50